Time;durP1;ratioP1;P1;durP2;ratioP2;P2;SDS_P1;SDS_P2;PMS_P1;PMS_P2;Temp;Humidity;BMP_temperature;BMP_pressure;BME280_temperature;BME280_humidity;BME280_pressure;Samples;Min_cycle;Max_cycle;Signal;HPM_P1;HPM_P2
2023/01/26 00:00:58;;;;;;;95.00;40.03;;;-0.50;99.90;;;;;;5039768;28;20294;-81
2023/01/26 00:03:24;;;;;;;86.80;37.33;;;-0.50;99.90;;;;;;5035316;28;20674;-81
2023/01/26 00:05:50;;;;;;;91.23;38.20;;;-0.50;99.90;;;;;;5051619;28;20226;-80
2023/01/26 00:08:16;;;;;;;93.43;39.90;;;-0.50;99.90;;;;;;5036508;28;20180;-81
2023/01/26 00:10:49;;;;;;;91.00;37.60;;;-0.50;99.90;;;;;;5036078;28;20654;-80
2023/01/26 00:13:15;;;;;;;103.27;39.10;;;-0.40;99.90;;;;;;5035857;28;20260;-81
2023/01/26 00:15:41;;;;;;;84.70;36.47;;;-0.40;99.90;;;;;;5036338;28;20648;-81
2023/01/26 00:18:08;;;;;;;85.23;37.30;;;-0.40;99.90;;;;;;5036831;28;20191;-80
2023/01/26 00:20:34;;;;;;;88.73;36.57;;;-0.40;99.90;;;;;;5035885;28;20200;-81
2023/01/26 00:22:59;;;;;;;86.80;37.97;;;-0.40;99.90;;;;;;5034533;28;20192;-81
2023/01/26 00:25:25;;;;;;;86.13;37.03;;;-0.40;99.90;;;;;;5035885;28;20189;-80
2023/01/26 00:27:50;;;;;;;95.20;38.27;;;-0.40;99.90;;;;;;5034590;28;20646;-80
2023/01/26 00:30:16;;;;;;;94.03;39.23;;;-0.40;99.90;;;;;;5034682;28;20180;-80
2023/01/26 00:32:41;;;;;;;88.53;38.37;;;-0.40;99.90;;;;;;5037334;28;20721;-81
2023/01/26 00:35:07;;;;;;;92.37;37.80;;;-0.40;99.90;;;;;;5037532;28;20195;-81
2023/01/26 00:37:33;;;;;;;84.53;36.33;;;-0.30;99.90;;;;;;5036051;28;20685;-80
2023/01/26 00:39:58;;;;;;;87.47;35.57;;;-0.30;99.90;;;;;;5037674;28;20164;-80
2023/01/26 00:42:24;;;;;;;77.07;33.53;;;-0.40;99.90;;;;;;5037680;28;20278;-80
2023/01/26 00:44:50;;;;;;;76.63;33.37;;;-0.40;99.90;;;;;;5037223;28;20199;-80
2023/01/26 00:47:17;;;;;;;76.33;33.13;;;-0.40;99.90;;;;;;5038034;28;20176;-81
2023/01/26 00:49:43;;;;;;;88.77;37.17;;;-0.40;99.90;;;;;;5053262;28;20176;-80
2023/01/26 00:52:10;;;;;;;84.03;35.33;;;-0.40;99.90;;;;;;5038379;28;20261;-80
2023/01/26 00:54:35;;;;;;;95.50;37.47;;;-0.40;99.90;;;;;;5053100;28;20663;-81
2023/01/26 00:57:01;;;;;;;96.17;37.40;;;-0.40;99.90;;;;;;5039108;28;20172;-81
2023/01/26 00:59:26;;;;;;;81.30;35.87;;;-0.30;99.90;;;;;;5051717;28;20183;-80
2023/01/26 01:01:53;;;;;;;87.77;35.53;;;-0.40;99.90;;;;;;5035286;28;20199;-81
2023/01/26 01:04:18;;;;;;;86.87;36.33;;;-0.30;99.90;;;;;;5035055;28;20176;-81
2023/01/26 01:06:44;;;;;;;89.17;36.33;;;-0.30;99.90;;;;;;5050763;28;20187;-81
2023/01/26 01:09:11;;;;;;;91.60;34.87;;;-0.30;99.90;;;;;;5035328;28;20212;-80
2023/01/26 01:11:37;;;;;;;91.83;36.30;;;-0.40;99.90;;;;;;5033855;28;20238;-80
2023/01/26 01:14:03;;;;;;;80.70;33.20;;;-0.40;99.90;;;;;;5033296;28;20202;-80
2023/01/26 01:16:28;;;;;;;74.10;31.63;;;-0.50;99.90;;;;;;5035089;28;20238;-80
2023/01/26 01:18:55;;;;;;;77.40;31.93;;;-0.40;99.90;;;;;;5034876;28;20250;-80
2023/01/26 01:21:21;;;;;;;72.47;30.87;;;-0.40;99.90;;;;;;5034728;28;20212;-80
2023/01/26 01:23:47;;;;;;;81.30;33.53;;;0.30;99.90;;;;;;5034285;28;20187;-81
2023/01/26 01:26:13;;;;;;;72.47;31.23;;;-0.40;99.90;;;;;;5050609;28;20693;-80
2023/01/26 01:28:40;;;;;;;72.93;31.27;;;-0.40;99.90;;;;;;5035413;28;20169;-80
2023/01/26 01:31:08;;;;;;;72.17;32.37;;;-0.40;99.90;;;;;;5035835;28;20234;-81
2023/01/26 01:33:34;;;;;;;69.10;29.03;;;-0.40;99.90;;;;;;5034649;28;20234;-81
2023/01/26 01:36:02;;;;;;;68.57;31.00;;;-0.40;99.90;;;;;;5033691;28;20175;-80
2023/01/26 01:38:28;;;;;;;81.67;34.97;;;-0.40;99.90;;;;;;5033809;28;20262;-81
2023/01/26 01:40:54;;;;;;;77.33;31.97;;;-0.40;99.90;;;;;;5033832;28;20709;-81
2023/01/26 01:43:21;;;;;;;81.27;32.67;;;-0.40;99.90;;;;;;5032813;28;20598;-80
2023/01/26 01:45:48;;;;;;;74.07;31.60;;;-0.30;99.90;;;;;;5049847;28;20180;-81
2023/01/26 01:48:23;;;;;;;68.20;29.73;;;-0.40;99.90;;;;;;5033888;28;20175;-80
2023/01/26 01:50:55;;;;;;;72.80;30.63;;;-0.30;99.90;;;;;;5035120;28;20260;-81
2023/01/26 01:53:26;;;;;;;73.93;30.40;;;-0.40;99.90;;;;;;5034821;28;20233;-81
2023/01/26 01:55:58;;;;;;;68.80;28.90;;;-0.40;99.90;;;;;;5035100;28;20156;-80
2023/01/26 01:58:25;;;;;;;80.13;29.40;;;-0.40;99.90;;;;;;5033587;28;20214;-81
2023/01/26 02:00:51;;;;;;;69.20;29.77;;;-0.40;99.90;;;;;;5050180;28;20217;-81
2023/01/26 02:03:20;;;;;;;72.63;29.10;;;-0.50;99.90;;;;;;5033416;28;20233;-81
2023/01/26 02:06:01;;;;;;;74.03;29.60;;;-0.40;99.90;;;;;;5051631;28;20666;-81
2023/01/26 02:08:32;;;;;;;65.97;28.90;;;-0.40;99.90;;;;;;5037557;28;20556;-80
2023/01/26 02:11:03;;;;;;;71.23;31.27;;;-0.40;99.90;;;;;;5037653;28;20686;-80
2023/01/26 02:13:30;;;;;;;69.27;29.03;;;-0.30;99.90;;;;;;5036905;28;20203;-81
2023/01/26 02:15:58;;;;;;;65.80;28.47;;;-0.30;99.90;;;;;;5038646;28;20172;-81
2023/01/26 02:18:24;;;;;;;77.10;29.80;;;-0.30;99.90;;;;;;5038773;28;20255;-80
2023/01/26 02:20:59;;;;;;;68.60;28.40;;;-0.30;99.90;;;;;;5038147;28;20242;-81
2023/01/26 02:23:47;;;;;;;70.27;29.67;;;-0.20;99.90;;;;;;5037628;28;20171;-81
2023/01/26 02:26:19;;;;;;;70.40;26.73;;;-0.30;99.90;;;;;;5038898;28;20160;-80
2023/01/26 02:28:46;;;;;;;71.00;28.87;;;-0.30;99.90;;;;;;5038630;28;20257;-80
2023/01/26 02:31:12;;;;;;;76.87;29.33;;;-0.30;99.90;;;;;;5036990;28;20271;-81
2023/01/26 02:33:39;;;;;;;70.90;29.60;;;-0.30;99.90;;;;;;5037206;28;20219;-80
2023/01/26 02:36:06;;;;;;;69.13;29.40;;;-0.30;99.90;;;;;;5038564;28;20182;-81
2023/01/26 02:38:52;;;;;;;69.20;29.33;;;-0.20;99.90;;;;;;5038706;28;20660;-80
2023/01/26 02:44:04;;;;;;;64.73;26.47;;;-0.30;99.90;;;;;;5038856;28;20649;-81
2023/01/26 02:46:30;;;;;;;75.00;30.47;;;-0.30;99.90;;;;;;5039470;28;20176;-81
2023/01/26 02:51:40;;;;;;;67.60;29.53;;;-0.20;99.90;;;;;;5038040;28;20199;-81
2023/01/26 02:54:05;;;;;;;75.53;30.90;;;-0.30;99.90;;;;;;5035531;28;20211;-82
2023/01/26 02:56:31;;;;;;;70.73;29.67;;;-0.30;99.90;;;;;;5036182;28;20178;-81
2023/01/26 02:58:56;;;;;;;66.57;27.93;;;-0.30;99.90;;;;;;5036131;28;20647;-81
2023/01/26 03:01:22;;;;;;;67.63;28.43;;;-0.40;99.90;;;;;;5036954;28;20209;-81
2023/01/26 03:03:47;;;;;;;70.80;29.23;;;-0.40;99.90;;;;;;5035845;28;20189;-81
2023/01/26 03:06:14;;;;;;;73.00;29.27;;;-0.40;99.90;;;;;;5035537;28;20226;-81
2023/01/26 03:08:40;;;;;;;64.10;28.40;;;-0.40;99.90;;;;;;5036984;28;20229;-81
2023/01/26 03:11:07;;;;;;;64.60;28.20;;;-0.40;99.90;;;;;;5037256;28;20199;-81
2023/01/26 03:13:34;;;;;;;69.97;28.73;;;-0.40;99.90;;;;;;5036790;28;20609;-80
2023/01/26 03:16:05;;;;;;;68.57;30.37;;;-0.40;99.90;;;;;;5035642;28;20690;-80
2023/01/26 03:29:30;;;;;;;74.10;27.83;;;-0.30;99.90;;;;;;5036990;28;20214;-81
2023/01/26 03:31:56;;;;;;;71.00;26.97;;;-0.30;99.90;;;;;;5036367;28;20246;-81
2023/01/26 03:34:22;;;;;;;72.27;31.33;;;-0.30;99.90;;;;;;5035578;28;20233;-81
2023/01/26 03:36:48;;;;;;;73.90;29.67;;;-0.30;99.90;;;;;;5035274;28;20261;-81
2023/01/26 03:41:06;;;;;;;75.17;28.90;;;-0.30;99.90;;;;;;5035218;28;20599;-80
2023/01/26 03:58:29;;;;;;;64.23;26.97;;;-0.50;99.90;;;;;;5037426;28;20247;-80
2023/01/26 04:00:55;;;;;;;75.80;28.43;;;-0.50;99.90;;;;;;5036805;28;20738;-81
2023/01/26 04:08:49;;;;;;;67.77;28.47;;;-0.50;99.90;;;;;;5037639;28;20166;-81
2023/01/26 04:11:15;;;;;;;70.87;29.30;;;-0.50;99.90;;;;;;5035491;28;20312;-81
2023/01/26 04:21:53;;;;;;;69.37;28.40;;;-0.50;99.90;;;;;;5037863;28;20218;-80
2023/01/26 04:24:21;;;;;;;66.73;27.50;;;-0.50;99.90;;;;;;5036632;28;20572;-81
2023/01/26 04:26:47;;;;;;;77.87;29.30;;;-0.40;99.90;;;;;;5036856;28;20179;-81
2023/01/26 04:29:15;;;;;;;64.30;27.23;;;-0.40;99.90;;;;;;5038202;28;20179;-81
2023/01/26 04:31:41;;;;;;;77.33;30.53;;;-0.40;99.90;;;;;;5036454;28;20206;-81
2023/01/26 04:34:11;;;;;;;65.57;26.37;;;-0.40;99.90;;;;;;5035313;28;20674;-81
2023/01/26 04:36:37;;;;;;;78.23;28.37;;;-0.40;99.90;;;;;;5033741;28;20214;-82
2023/01/26 04:39:03;;;;;;;62.07;26.17;;;-0.40;99.90;;;;;;5034457;28;20229;-81
2023/01/26 04:41:30;;;;;;;72.03;25.57;;;-0.40;99.90;;;;;;5033825;28;20200;-80
2023/01/26 04:43:56;;;;;;;75.87;28.57;;;-0.40;99.90;;;;;;5035624;28;20547;-81
2023/01/26 04:46:21;;;;;;;72.13;29.30;;;-0.40;99.90;;;;;;5035546;28;20695;-81
2023/01/26 04:48:47;;;;;;;63.37;26.97;;;-0.40;99.90;;;;;;5034664;28;20200;-81
2023/01/26 04:51:15;;;;;;;63.60;25.87;;;-0.40;99.90;;;;;;5035122;28;20238;-81
2023/01/26 04:53:41;;;;;;;72.03;27.43;;;-0.40;99.90;;;;;;5034076;28;20261;-80
2023/01/26 04:56:11;;;;;;;70.77;25.90;;;-0.40;99.90;;;;;;5035756;28;20179;-80
2023/01/26 04:58:36;;;;;;;78.07;29.20;;;-0.40;99.90;;;;;;5036508;28;20183;-81
2023/01/26 05:01:02;;;;;;;69.33;26.63;;;-0.40;99.90;;;;;;5035098;28;20721;-80
2023/01/26 05:03:27;;;;;;;72.03;28.03;;;-0.30;99.90;;;;;;5036455;28;20229;-81
2023/01/26 05:05:54;;;;;;;69.83;26.93;;;-0.30;99.90;;;;;;5036937;28;20172;-80
2023/01/26 05:08:21;;;;;;;62.40;25.20;;;-0.40;99.90;;;;;;5035061;28;20179;-81
2023/01/26 05:10:47;;;;;;;61.37;25.17;;;-0.40;99.90;;;;;;5037535;28;20510;-81
2023/01/26 05:13:13;;;;;;;68.73;25.33;;;-0.40;99.90;;;;;;5039665;28;20207;-80
2023/01/26 05:15:39;;;;;;;56.73;23.73;;;-0.40;99.90;;;;;;5036640;28;20195;-80
2023/01/26 05:18:05;;;;;;;66.20;26.50;;;-0.40;99.90;;;;;;5037373;28;20182;-82
2023/01/26 05:20:31;;;;;;;63.53;25.87;;;-0.40;99.90;;;;;;5036102;28;20198;-81
2023/01/26 05:22:57;;;;;;;64.43;26.77;;;-0.40;99.90;;;;;;5039690;28;20163;-81
2023/01/26 05:25:22;;;;;;;58.23;24.23;;;-0.40;99.90;;;;;;5042080;28;20267;-82
2023/01/26 05:27:48;;;;;;;65.43;26.23;;;-0.40;99.90;;;;;;5042081;28;20184;-81
2023/01/26 05:30:14;;;;;;;62.30;25.90;;;-0.40;99.90;;;;;;5042807;28;20211;-81
2023/01/26 05:32:40;;;;;;;72.63;28.50;;;-0.20;99.90;;;;;;5042835;28;20219;-81
2023/01/26 05:35:06;;;;;;;64.47;26.60;;;-0.40;99.90;;;;;;5043775;28;20172;-82
2023/01/26 05:37:32;;;;;;;61.70;24.97;;;-0.30;99.90;;;;;;5043881;28;20178;-81
2023/01/26 05:39:58;;;;;;;68.73;27.20;;;-0.30;99.90;;;;;;5046101;28;20203;-82
2023/01/26 05:42:24;;;;;;;61.00;26.83;;;-0.30;99.90;;;;;;5051468;28;20198;-82
2023/01/26 05:44:50;;;;;;;64.47;25.53;;;-0.30;99.90;;;;;;5052415;28;20187;-82
2023/01/26 05:47:15;;;;;;;67.40;26.10;;;-0.30;99.90;;;;;;5056147;28;20552;-82
2023/01/26 05:49:42;;;;;;;62.20;25.67;;;-0.30;99.90;;;;;;5057371;28;20172;-81
2023/01/26 05:52:15;;;;;;;63.23;25.37;;;-0.30;99.90;;;;;;5055714;28;20258;-81
2023/01/26 05:54:41;;;;;;;56.77;25.27;;;-0.20;99.90;;;;;;5044098;28;20631;-81
2023/01/26 05:57:07;;;;;;;60.27;25.60;;;-0.30;99.90;;;;;;5059426;28;20230;-81
2023/01/26 05:59:33;;;;;;;58.57;25.27;;;-0.20;99.90;;;;;;5043664;28;20180;-81
2023/01/26 06:01:59;;;;;;;58.93;24.87;;;-0.20;99.90;;;;;;5042392;28;20206;-82
2023/01/26 06:04:25;;;;;;;60.37;25.03;;;-0.20;99.90;;;;;;5041442;28;20249;-82
2023/01/26 06:06:55;;;;;;;58.77;25.07;;;0.00;99.90;;;;;;5041871;28;20337;-82
2023/01/26 06:09:21;;;;;;;55.83;24.30;;;-0.20;99.90;;;;;;5042379;28;20177;-82
2023/01/26 06:11:47;;;;;;;62.90;26.37;;;-0.20;99.90;;;;;;5044572;28;20583;-82
2023/01/26 06:14:13;;;;;;;52.97;23.13;;;-0.20;99.90;;;;;;5042314;28;20206;-82
2023/01/26 06:16:39;;;;;;;50.10;23.97;;;-0.20;99.90;;;;;;5043838;28;20195;-82
2023/01/26 06:19:05;;;;;;;49.93;22.43;;;-0.20;99.90;;;;;;5044927;28;20197;-82
2023/01/26 06:21:31;;;;;;;53.27;23.17;;;-0.20;99.90;;;;;;5042783;28;20238;-82
2023/01/26 06:23:57;;;;;;;47.70;21.87;;;-0.20;99.90;;;;;;5042514;28;20218;-82
2023/01/26 06:26:25;;;;;;;51.37;22.83;;;-0.20;99.90;;;;;;5060777;28;20176;-82
2023/01/26 06:28:51;;;;;;;49.43;21.43;;;-0.10;99.90;;;;;;5045112;28;20179;-82
2023/01/26 06:31:17;;;;;;;50.43;20.73;;;-0.10;99.90;;;;;;5045286;28;20199;-82
2023/01/26 06:33:43;;;;;;;50.90;22.53;;;-0.10;99.90;;;;;;5043775;28;20200;-81
2023/01/26 06:36:12;;;;;;;48.47;21.00;;;-0.20;99.90;;;;;;5044725;28;20179;-82
2023/01/26 06:38:43;;;;;;;46.77;21.47;;;-0.10;99.90;;;;;;5044713;28;20643;-82
2023/01/26 06:41:09;;;;;;;49.90;23.10;;;-0.10;99.90;;;;;;5044195;28;20195;-83
2023/01/26 06:43:34;;;;;;;46.83;21.43;;;-0.10;99.90;;;;;;5043959;28;20222;-82
2023/01/26 06:46:01;;;;;;;50.77;21.30;;;-0.10;99.90;;;;;;5045212;28;20179;-82
2023/01/26 06:48:29;;;;;;;46.80;21.00;;;0.00;99.90;;;;;;5045648;28;20666;-81
2023/01/26 06:50:56;;;;;;;48.60;21.07;;;-0.10;99.90;;;;;;5041642;28;20757;-81
2023/01/26 06:53:31;;;;;;;48.23;20.83;;;-0.10;99.90;;;;;;5036541;28;20211;-82
2023/01/26 06:55:57;;;;;;;51.30;21.70;;;0.00;99.90;;;;;;5039989;28;20163;-81
2023/01/26 06:58:23;;;;;;;52.43;23.00;;;-0.10;99.90;;;;;;5039675;28;20211;-82
2023/01/26 07:00:48;;;;;;;49.37;21.67;;;-0.10;99.90;;;;;;5041648;28;20200;-82
2023/01/26 07:03:14;;;;;;;57.93;21.97;;;0.10;99.90;;;;;;5040174;28;20212;-82
2023/01/26 07:05:39;;;;;;;50.73;22.50;;;0.00;99.90;;;;;;5057003;28;20180;-82
2023/01/26 07:08:07;;;;;;;46.17;20.63;;;0.00;99.90;;;;;;5042106;28;20187;-81
2023/01/26 07:10:36;;;;;;;49.20;22.37;;;0.00;99.90;;;;;;5041641;28;20590;-81
2023/01/26 07:13:03;;;;;;;45.80;20.60;;;0.00;99.90;;;;;;5039803;28;20207;-82
2023/01/26 07:15:28;;;;;;;51.77;21.37;;;0.00;99.90;;;;;;5040385;28;20180;-81
2023/01/26 07:17:56;;;;;;;53.83;22.30;;;0.00;99.90;;;;;;5041785;28;20202;-82
2023/01/26 07:20:22;;;;;;;46.37;20.70;;;0.00;99.90;;;;;;5041001;28;20211;-82
2023/01/26 07:22:48;;;;;;;51.63;22.50;;;0.00;99.90;;;;;;5040129;28;20230;-81
2023/01/26 07:25:14;;;;;;;59.30;22.47;;;0.00;99.90;;;;;;5048501;28;20172;-81
2023/01/26 07:27:40;;;;;;;58.50;24.60;;;0.00;99.90;;;;;;5046346;28;20608;-81
2023/01/26 07:30:06;;;;;;;51.63;23.60;;;-0.10;99.90;;;;;;5048928;28;20224;-81
2023/01/26 07:32:31;;;;;;;60.37;24.17;;;0.00;99.90;;;;;;5048778;28;20213;-81
2023/01/26 07:34:57;;;;;;;53.97;22.77;;;-0.10;99.90;;;;;;5052567;28;20199;-80
2023/01/26 07:37:27;;;;;;;58.07;24.10;;;0.00;99.90;;;;;;5055467;28;20259;-81
2023/01/26 07:39:52;;;;;;;60.03;24.77;;;0.00;99.90;;;;;;5052826;28;20233;-82
2023/01/26 07:42:18;;;;;;;53.73;21.77;;;0.00;99.90;;;;;;5040210;28;20278;-81
2023/01/26 07:44:43;;;;;;;55.67;22.93;;;0.00;99.90;;;;;;5042861;28;20739;-81
2023/01/26 07:47:09;;;;;;;56.67;23.47;;;0.10;99.90;;;;;;5058542;28;20520;-81
2023/01/26 07:49:34;;;;;;;60.00;24.70;;;0.10;99.90;;;;;;5043554;28;20678;-81
2023/01/26 07:52:00;;;;;;;52.63;23.33;;;0.10;99.90;;;;;;5042043;28;20703;-80
2023/01/26 07:54:25;;;;;;;60.67;24.60;;;0.10;99.90;;;;;;5041673;28;20243;-81
2023/01/26 07:56:52;;;;;;;61.03;25.20;;;0.10;99.90;;;;;;5045775;28;20189;-81
2023/01/26 07:59:17;;;;;;;66.83;25.00;;;0.10;99.90;;;;;;5044311;28;20260;-80
2023/01/26 08:01:43;;;;;;;56.90;24.53;;;0.10;99.90;;;;;;5038775;28;20671;-80
2023/01/26 08:04:08;;;;;;;63.87;24.60;;;0.10;99.90;;;;;;5038655;28;20195;-81
2023/01/26 08:06:34;;;;;;;62.10;24.13;;;0.10;99.90;;;;;;5039317;28;20555;-81
2023/01/26 08:08:59;;;;;;;56.83;23.90;;;0.10;99.90;;;;;;5041044;28;20551;-80
2023/01/26 08:11:25;;;;;;;56.07;23.83;;;0.10;99.90;;;;;;5041275;28;20195;-80
2023/01/26 08:13:51;;;;;;;60.83;25.13;;;0.10;99.90;;;;;;5039955;28;20313;-81
2023/01/26 08:16:17;;;;;;;68.27;27.60;;;0.10;99.90;;;;;;5040253;28;20188;-80
2023/01/26 08:18:44;;;;;;;60.80;23.53;;;0.10;99.90;;;;;;5039016;28;20180;-81
2023/01/26 08:21:12;;;;;;;66.47;26.57;;;0.10;99.90;;;;;;5038927;28;20243;-81
2023/01/26 08:23:38;;;;;;;62.33;25.30;;;0.10;99.90;;;;;;5038621;28;20183;-81
2023/01/26 08:26:12;;;;;;;62.97;24.67;;;0.20;99.90;;;;;;5039718;28;20211;-81
2023/01/26 08:28:38;;;;;;;60.20;25.20;;;0.10;99.90;;;;;;5038893;28;20647;-81
2023/01/26 08:31:13;;;;;;;61.23;24.00;;;0.20;99.90;;;;;;5040264;28;20196;-81
2023/01/26 08:33:40;;;;;;;55.70;24.10;;;0.20;99.90;;;;;;5038354;28;20262;-81
2023/01/26 08:36:09;;;;;;;54.40;24.73;;;0.20;99.90;;;;;;5038662;28;20574;-81
2023/01/26 08:38:35;;;;;;;57.67;23.20;;;0.30;99.90;;;;;;5040548;28;20572;-81
2023/01/26 08:41:01;;;;;;;59.80;24.83;;;0.30;99.90;;;;;;5040373;28;20188;-81
2023/01/26 08:43:27;;;;;;;66.83;26.23;;;0.30;99.90;;;;;;5039042;28;20183;-81
2023/01/26 08:45:53;;;;;;;57.77;24.40;;;0.30;99.90;;;;;;5055165;28;20190;-81
2023/01/26 08:48:18;;;;;;;54.13;24.23;;;0.30;99.90;;;;;;5038565;28;20271;-82
2023/01/26 08:50:45;;;;;;;54.80;22.27;;;0.30;99.90;;;;;;5038768;28;20183;-82
2023/01/26 08:53:10;;;;;;;52.37;22.63;;;0.30;99.90;;;;;;5037584;28;20209;-82
2023/01/26 08:55:36;;;;;;;55.07;20.67;;;0.30;99.90;;;;;;5054205;28;20191;-82
2023/01/26 08:58:02;;;;;;;53.10;22.50;;;0.30;99.90;;;;;;5038124;28;20271;-82
2023/01/26 09:00:28;;;;;;;54.73;22.97;;;0.40;99.90;;;;;;5038192;28;20176;-81
2023/01/26 09:03:01;;;;;;;41.17;19.07;;;0.40;99.90;;;;;;5037405;28;20550;-82
2023/01/26 09:05:29;;;;;;;44.27;19.77;;;0.50;99.90;;;;;;5038924;28;20176;-81
2023/01/26 09:07:55;;;;;;;47.77;20.97;;;0.40;99.90;;;;;;5037045;28;20186;-82
2023/01/26 09:10:20;;;;;;;48.57;19.83;;;0.40;99.90;;;;;;5038259;28;20183;-82
2023/01/26 09:12:46;;;;;;;51.77;22.17;;;0.40;99.90;;;;;;5038342;28;20204;-81
2023/01/26 09:15:12;;;;;;;53.27;20.97;;;0.40;99.90;;;;;;5037718;28;20716;-81
2023/01/26 09:17:37;;;;;;;51.37;21.30;;;0.50;99.90;;;;;;5039567;28;20643;-82
2023/01/26 09:20:04;;;;;;;48.57;21.03;;;0.50;99.90;;;;;;5037867;28;20184;-82
2023/01/26 09:22:30;;;;;;;51.03;22.87;;;0.50;99.90;;;;;;5039977;28;20279;-82
2023/01/26 09:24:56;;;;;;;52.23;22.37;;;0.60;99.90;;;;;;5038879;28;20203;-82
2023/01/26 09:27:22;;;;;;;58.37;23.87;;;0.50;99.90;;;;;;5036647;28;20182;-82
2023/01/26 09:29:47;;;;;;;60.83;23.20;;;0.50;99.90;;;;;;5053786;28;20180;-82
2023/01/26 09:32:13;;;;;;;55.83;22.97;;;0.60;99.90;;;;;;5037415;28;20292;-82
2023/01/26 09:34:39;;;;;;;53.80;22.87;;;0.50;99.90;;;;;;5038732;28;20243;-81
2023/01/26 09:37:06;;;;;;;51.67;22.20;;;0.60;99.90;;;;;;5053844;28;20179;-81
2023/01/26 09:39:32;;;;;;;48.27;21.23;;;0.60;99.90;;;;;;5054313;28;20270;-82
2023/01/26 09:42:06;;;;;;;44.93;20.30;;;0.60;99.90;;;;;;5037582;28;20299;-82
2023/01/26 09:44:42;;;;;;;51.90;21.07;;;0.60;99.90;;;;;;5037836;28;20167;-82
2023/01/26 09:47:16;;;;;;;43.10;19.27;;;0.60;99.90;;;;;;5036541;28;20546;-82
2023/01/26 09:50:07;;;;;;;44.93;19.27;;;0.60;99.90;;;;;;5036110;28;20190;-82
2023/01/26 09:52:36;;;;;;;46.27;18.93;;;0.60;99.90;;;;;;5035880;28;20204;-82
2023/01/26 09:55:05;;;;;;;42.20;18.60;;;0.70;99.90;;;;;;5037913;28;20669;-82
2023/01/26 09:57:57;;;;;;;41.10;18.47;;;0.70;99.90;;;;;;5037689;28;20176;-82
2023/01/26 10:00:40;;;;;;;40.43;18.30;;;0.70;99.90;;;;;;5034746;28;20198;-82
2023/01/26 10:03:17;;;;;;;44.10;19.20;;;0.70;99.90;;;;;;5037596;28;20250;-81
2023/01/26 10:05:46;;;;;;;38.73;16.87;;;0.70;99.90;;;;;;5038613;28;20186;-81
2023/01/26 10:08:15;;;;;;;41.57;18.27;;;0.80;99.90;;;;;;5038269;28;20199;-81
2023/01/26 10:10:46;;;;;;;42.40;19.37;;;0.80;99.90;;;;;;5037671;28;20187;-81
2023/01/26 10:13:13;;;;;;;42.23;18.17;;;0.80;99.90;;;;;;5036790;28;20184;-81
2023/01/26 10:15:42;;;;;;;37.57;17.73;;;0.80;99.90;;;;;;5035510;28;20176;-81
2023/01/26 10:18:20;;;;;;;37.60;16.70;;;0.90;99.90;;;;;;5043439;28;20260;-81
2023/01/26 10:20:55;;;;;;;39.23;17.37;;;0.80;99.90;;;;;;5041755;28;20192;-81
2023/01/26 10:23:30;;;;;;;36.40;16.97;;;0.80;99.90;;;;;;5041894;28;20179;-80
2023/01/26 10:26:20;;;;;;;31.90;15.30;;;0.80;99.90;;;;;;5043961;28;20172;-80
2023/01/26 10:28:48;;;;;;;30.37;14.30;;;0.90;99.90;;;;;;5047195;28;20544;-80
2023/01/26 10:31:19;;;;;;;25.93;12.93;;;0.90;99.90;;;;;;5048508;28;20219;-80
2023/01/26 10:33:56;;;;;;;25.10;11.63;;;0.90;99.90;;;;;;5048428;28;20214;-79
2023/01/26 10:36:23;;;;;;;25.93;12.03;;;0.90;99.90;;;;;;5047553;28;20206;-79
2023/01/26 10:38:50;;;;;;;23.70;11.13;;;0.90;99.90;;;;;;5048715;28;20168;-79
2023/01/26 10:41:21;;;;;;;24.30;10.70;;;0.90;99.90;;;;;;5048536;28;20183;-79
2023/01/26 10:43:56;;;;;;;19.43;9.87;;;1.00;99.90;;;;;;5047543;28;20188;-79
2023/01/26 10:46:33;;;;;;;23.70;10.60;;;1.00;99.90;;;;;;5048631;28;20179;-80
2023/01/26 10:49:14;;;;;;;19.07;9.70;;;1.10;99.90;;;;;;5048386;28;20200;-79
2023/01/26 10:52:04;;;;;;;21.83;9.60;;;1.10;99.90;;;;;;5048450;28;20234;-79
2023/01/26 10:54:30;;;;;;;20.77;8.37;;;1.10;99.90;;;;;;5047680;28;20556;-79
2023/01/26 10:57:00;;;;;;;18.10;8.87;;;1.20;99.90;;;;;;5048031;28;20176;-80
2023/01/26 10:59:38;;;;;;;18.90;9.80;;;1.20;99.90;;;;;;5063317;28;20298;-80
2023/01/26 11:02:16;;;;;;;16.00;7.90;;;1.30;99.90;;;;;;5048201;28;20562;-79
2023/01/26 11:05:06;;;;;;;18.40;8.23;;;1.30;99.90;;;;;;5046667;28;20176;-80
2023/01/26 11:07:47;;;;;;;20.40;9.67;;;1.30;99.90;;;;;;5048464;28;20226;-80
2023/01/26 11:10:23;;;;;;;17.83;9.07;;;1.30;99.90;;;;;;5048148;28;20198;-81
2023/01/26 11:12:50;;;;;;;17.07;8.17;;;1.30;99.90;;;;;;5047778;28;20207;-81
2023/01/26 11:15:19;;;;;;;15.83;8.53;;;1.30;99.90;;;;;;5048784;28;20168;-81
2023/01/26 11:17:59;;;;;;;18.27;9.33;;;1.30;99.90;;;;;;5047158;28;20192;-81
2023/01/26 11:20:45;;;;;;;16.50;9.07;;;1.40;99.90;;;;;;5048497;28;20176;-82
2023/01/26 11:23:22;;;;;;;16.57;8.87;;;1.40;99.90;;;;;;5047265;28;20202;-81
2023/01/26 11:26:08;;;;;;;15.10;8.20;;;1.40;99.90;;;;;;5049189;28;20161;-81
2023/01/26 11:28:36;;;;;;;19.07;8.77;;;1.40;99.90;;;;;;5048449;28;20632;-81
2023/01/26 11:31:21;;;;;;;18.03;9.03;;;1.40;99.90;;;;;;5047705;28;20199;-82
2023/01/26 11:34:23;;;;;;;17.77;8.33;;;1.40;99.90;;;;;;5063338;28;20227;-82
2023/01/26 11:37:14;;;;;;;13.80;7.20;;;1.40;99.90;;;;;;5049073;28;20160;-82
2023/01/26 11:39:46;;;;;;;19.33;8.37;;;1.30;99.90;;;;;;5040997;28;20187;-82
2023/01/26 11:42:36;;;;;;;15.17;7.70;;;1.30;99.90;;;;;;5047472;28;20695;-82
2023/01/26 11:45:19;;;;;;;15.57;8.27;;;1.30;99.90;;;;;;5047947;28;20165;-82
2023/01/26 11:47:51;;;;;;;15.37;8.20;;;1.30;99.90;;;;;;5046061;28;20613;-81
2023/01/26 11:50:52;;;;;;;13.97;7.83;;;1.30;99.90;;;;;;5046154;28;20180;-81
2023/01/26 11:53:54;;;;;;;15.40;8.10;;;1.20;99.90;;;;;;5038367;28;20291;-81
2023/01/26 11:56:51;;;;;;;14.23;7.30;;;1.30;99.90;;;;;;5046649;28;20151;-82
2023/01/26 11:59:28;;;;;;;16.90;8.30;;;1.30;99.90;;;;;;5047940;28;20500;-81
2023/01/26 12:02:14;;;;;;;15.80;7.73;;;1.40;99.90;;;;;;5062728;28;20201;-81
2023/01/26 12:04:45;;;;;;;18.33;8.63;;;1.40;99.90;;;;;;5045835;28;20194;-81
2023/01/26 12:07:14;;;;;;;19.07;8.67;;;1.40;99.90;;;;;;5046350;28;20168;-82
2023/01/26 12:09:46;;;;;;;17.30;7.97;;;1.50;99.90;;;;;;5043384;28;20180;-82
2023/01/26 12:12:26;;;;;;;15.63;8.00;;;1.50;99.90;;;;;;5047628;28;20203;-82
2023/01/26 12:15:12;;;;;;;18.20;7.90;;;1.50;99.90;;;;;;5047654;28;20170;-82
2023/01/26 12:17:52;;;;;;;15.97;6.67;;;1.50;99.90;;;;;;5046718;28;20187;-83
2023/01/26 12:20:26;;;;;;;16.90;8.23;;;1.50;99.90;;;;;;5043917;28;20258;-82
2023/01/26 12:23:03;;;;;;;14.83;7.87;;;1.50;99.90;;;;;;5047448;28;20196;-82
2023/01/26 12:25:35;;;;;;;12.97;7.07;;;1.60;99.90;;;;;;5046640;28;20172;-82
2023/01/26 12:28:23;;;;;;;15.27;7.63;;;1.60;99.90;;;;;;5046111;28;20215;-81
2023/01/26 12:31:05;;;;;;;13.80;7.00;;;1.60;99.90;;;;;;5045114;28;20161;-79
2023/01/26 12:33:32;;;;;;;17.90;8.30;;;1.60;99.90;;;;;;5061144;28;20218;-79
2023/01/26 12:36:15;;;;;;;15.10;7.50;;;1.60;99.90;;;;;;5045517;28;20172;-80
2023/01/26 12:39:22;;;;;;;13.80;6.70;;;1.70;99.90;;;;;;5045281;28;20175;-80
2023/01/26 12:41:57;;;;;;;11.10;6.30;;;1.70;99.90;;;;;;4980824;28;20190;-81
2023/01/26 12:44:49;;;;;;;11.87;6.00;;;1.70;99.90;;;;;;5032269;28;20223;-81
2023/01/26 12:47:40;;;;;;;12.13;6.73;;;1.70;99.90;;;;;;5037385;28;20188;-81
2023/01/26 12:50:30;;;;;;;10.20;6.23;;;1.80;99.90;;;;;;5037610;28;20658;-81
2023/01/26 12:53:16;;;;;;;14.53;6.93;;;1.70;99.90;;;;;;5037933;28;20682;-81
2023/01/26 12:56:43;;;;;;;14.07;6.23;;;1.70;99.90;;;;;;5038131;28;20191;-82
2023/01/26 12:59:33;;;;;;;12.43;6.43;;;1.80;99.90;;;;;;4978174;28;20178;-81
2023/01/26 13:02:08;;;;;;;10.40;5.97;;;1.80;99.90;;;;;;5026065;28;20207;-81
2023/01/26 13:04:35;;;;;;;11.37;6.60;;;1.80;99.90;;;;;;5037703;28;20175;-81
2023/01/26 13:07:43;;;;;;;14.50;7.13;;;1.80;99.90;;;;;;5039291;28;20778;-81
2023/01/26 13:10:16;;;;;;;11.17;6.90;;;1.80;99.90;;;;;;5039547;28;20555;-81
2023/01/26 13:12:52;;;;;;;12.73;7.23;;;1.70;99.90;;;;;;5037636;28;20203;-81
2023/01/26 13:15:20;;;;;;;13.33;7.30;;;1.70;99.90;;;;;;5035626;28;20171;-82
2023/01/26 13:17:53;;;;;;;11.93;7.27;;;1.70;99.90;;;;;;5034005;28;20546;-81
2023/01/26 13:20:41;;;;;;;15.17;8.53;;;1.80;99.90;;;;;;5035149;28;20187;-82
2023/01/26 13:23:39;;;;;;;12.97;8.00;;;1.80;99.90;;;;;;5035748;28;20172;-81
2023/01/26 13:26:32;;;;;;;19.50;8.40;;;1.80;99.90;;;;;;5034606;28;20188;-82
2023/01/26 13:29:26;;;;;;;18.70;9.63;;;1.80;99.90;;;;;;5035491;28;20206;-81
2023/01/26 13:31:56;;;;;;;17.97;10.00;;;1.90;99.90;;;;;;5036554;28;20189;-80
2023/01/26 13:34:32;;;;;;;21.60;9.67;;;1.90;99.90;;;;;;5053842;28;20283;-80
2023/01/26 13:37:31;;;;;;;18.77;8.80;;;1.90;99.90;;;;;;5039503;28;20599;-80